createdAt,value
2022-12-11T00:00:55.570Z,8.85
2022-12-11T00:03:23.634Z,9.57
2022-12-11T00:05:52.978Z,7.72
2022-12-11T00:08:20.977Z,10.52
2022-12-11T00:10:50.398Z,16.65
2022-12-11T00:13:18.451Z,14.07
2022-12-11T00:15:46.495Z,14.52
2022-12-11T00:18:15.375Z,11.55
2022-12-11T00:20:43.965Z,14.40
2022-12-11T00:23:13.471Z,11.48
2022-12-11T00:25:44.025Z,10.02
2022-12-11T00:28:12.361Z,11.70
2022-12-11T00:30:41.729Z,9.60
2022-12-11T00:33:09.957Z,12.32
2022-12-11T00:35:39.500Z,10.73
2022-12-11T00:38:07.707Z,11.98
2022-12-11T00:40:38.071Z,22.60
2022-12-11T00:43:06.232Z,13.93
2022-12-11T00:45:39.567Z,11.00
2022-12-11T00:48:08.924Z,11.30
2022-12-11T00:50:37.705Z,11.43
2022-12-11T00:53:07.317Z,11.63
2022-12-11T00:55:40.529Z,13.60
2022-12-11T00:58:09.231Z,12.50
2022-12-11T01:00:37.301Z,13.45
2022-12-11T01:03:06.148Z,13.00
2022-12-11T01:05:34.744Z,13.48
2022-12-11T01:08:03.250Z,15.50
2022-12-11T01:10:31.849Z,15.52
2022-12-11T01:13:04.350Z,14.23
2022-12-11T01:15:37.434Z,13.60
2022-12-11T01:18:08.096Z,14.32
2022-12-11T01:20:36.089Z,13.95
2022-12-11T01:23:04.066Z,17.08
2022-12-11T01:25:33.150Z,14.85
2022-12-11T01:28:02.572Z,13.32
2022-12-11T01:30:30.635Z,12.88
2022-12-11T01:32:58.720Z,18.63
2022-12-11T01:35:26.769Z,13.52
2022-12-11T01:37:55.027Z,16.33
2022-12-11T01:40:23.739Z,15.68
2022-12-11T01:42:51.771Z,15.73
2022-12-11T01:45:32.114Z,16.13
2022-12-11T01:48:05.372Z,16.48
2022-12-11T01:50:35.830Z,16.27
2022-12-11T01:53:07.010Z,14.13
2022-12-11T01:55:36.495Z,17.15
2022-12-11T01:58:04.992Z,15.10
2022-12-11T02:00:34.292Z,15.88
2022-12-11T02:03:02.656Z,14.13
2022-12-11T02:05:30.675Z,15.95
2022-12-11T02:08:02.332Z,15.88
2022-12-11T02:10:49.945Z,14.93
2022-12-11T02:13:24.257Z,13.95
2022-12-11T02:16:03.772Z,13.65
2022-12-11T02:18:37.744Z,14.30
2022-12-11T02:21:11.938Z,17.08
2022-12-11T02:24:02.086Z,15.25
2022-12-11T02:26:56.039Z,14.13
2022-12-11T02:29:31.619Z,13.85
2022-12-11T02:32:04.197Z,13.30
2022-12-11T02:34:38.319Z,12.73
2022-12-11T02:37:14.785Z,13.40
2022-12-11T02:39:44.592Z,11.02
2022-12-11T02:42:14.802Z,11.63
2022-12-11T02:44:46.248Z,13.05
2022-12-11T02:47:16.052Z,13.07
2022-12-11T02:49:48.237Z,12.98
2022-12-11T02:52:19.898Z,11.57
2022-12-11T02:54:49.982Z,10.85
2022-12-11T02:57:24.356Z,11.07
2022-12-11T02:59:53.831Z,9.38
2022-12-11T03:02:21.823Z,9.00
2022-12-11T03:04:50.070Z,10.15
2022-12-11T03:07:23.341Z,11.20
2022-12-11T03:09:52.144Z,12.18
2022-12-11T03:12:23.222Z,11.10
2022-12-11T03:14:52.872Z,10.60
2022-12-11T03:17:23.874Z,11.35
2022-12-11T03:20:01.440Z,11.98
2022-12-11T03:22:38.829Z,14.20
2022-12-11T03:25:11.854Z,12.35
2022-12-11T03:27:46.630Z,14.35
2022-12-11T03:30:18.721Z,13.15
2022-12-11T03:32:51.298Z,12.82
2022-12-11T03:35:23.953Z,14.10
2022-12-11T03:37:54.000Z,12.95
2022-12-11T03:40:23.761Z,12.18
2022-12-11T03:42:54.551Z,13.15
2022-12-11T03:45:25.849Z,13.73
2022-12-11T03:47:55.896Z,11.82
2022-12-11T03:50:25.578Z,12.10
2022-12-11T03:52:55.012Z,13.00
2022-12-11T03:55:24.033Z,14.25
2022-12-11T03:57:52.030Z,12.52
2022-12-11T04:00:23.147Z,12.40
2022-12-11T04:03:09.688Z,13.07
2022-12-11T04:05:41.569Z,12.95
2022-12-11T04:08:09.704Z,13.73
2022-12-11T04:10:37.701Z,13.02
2022-12-11T04:13:05.944Z,13.55
2022-12-11T04:15:34.701Z,12.30
2022-12-11T04:18:20.165Z,13.13
2022-12-11T04:21:05.926Z,13.85
2022-12-11T04:23:51.448Z,13.32
2022-12-11T04:26:21.100Z,14.27
2022-12-11T04:28:50.127Z,13.65
2022-12-11T04:31:21.570Z,13.48
2022-12-11T04:33:49.892Z,14.73
2022-12-11T04:36:18.276Z,14.02
2022-12-11T04:38:46.301Z,15.98
2022-12-11T04:41:16.658Z,13.10
2022-12-11T04:43:45.388Z,15.00
2022-12-11T04:46:15.613Z,14.57
2022-12-11T04:48:45.784Z,14.60
2022-12-11T04:51:14.622Z,15.07
2022-12-11T04:53:43.389Z,14.15
2022-12-11T04:56:14.485Z,12.15
2022-12-11T04:58:43.335Z,15.35
2022-12-11T05:01:12.675Z,15.32
2022-12-11T05:03:41.324Z,15.63
2022-12-11T05:06:11.462Z,15.30
2022-12-11T05:08:41.821Z,14.45
2022-12-11T05:11:12.011Z,13.70
2022-12-11T05:13:40.397Z,14.82
2022-12-11T05:16:09.896Z,16.73
2022-12-11T05:18:37.987Z,15.45
2022-12-11T05:21:07.749Z,14.73
2022-12-11T05:23:37.416Z,12.93
2022-12-11T05:26:07.507Z,15.65
2022-12-11T05:28:38.027Z,14.25
2022-12-11T05:31:08.668Z,13.85
2022-12-11T05:33:36.833Z,13.77
2022-12-11T05:36:05.233Z,13.68
2022-12-11T05:38:33.223Z,15.15
2022-12-11T05:41:04.559Z,14.60
2022-12-11T05:43:34.669Z,13.75
2022-12-11T05:46:08.484Z,14.07
2022-12-11T05:48:37.478Z,17.83
2022-12-11T05:51:06.671Z,17.17
2022-12-11T05:53:34.863Z,66.43
2022-12-11T05:56:05.320Z,40.30
2022-12-11T05:58:33.638Z,37.72
2022-12-11T06:01:02.190Z,33.80
2022-12-11T06:03:30.169Z,27.13
2022-12-11T06:05:58.219Z,21.10
2022-12-11T06:08:26.264Z,20.48
2022-12-11T06:10:54.286Z,20.02
2022-12-11T06:13:23.720Z,18.58
2022-12-11T06:15:51.745Z,17.90
2022-12-11T06:18:20.036Z,17.80
2022-12-11T06:20:48.074Z,17.05
2022-12-11T06:23:16.025Z,15.20
2022-12-11T06:25:43.976Z,13.82
2022-12-11T06:28:12.040Z,16.27
2022-12-11T06:30:41.435Z,16.40
2022-12-11T06:33:09.422Z,16.02
2022-12-11T06:35:42.079Z,15.27
2022-12-11T06:38:10.885Z,16.25
2022-12-11T06:40:39.219Z,17.45
2022-12-11T06:43:07.237Z,21.65
2022-12-11T06:45:35.208Z,23.27
2022-12-11T06:48:04.857Z,21.45
2022-12-11T06:50:32.841Z,19.45
2022-12-11T06:53:00.836Z,14.00
2022-12-11T06:55:28.838Z,11.35
2022-12-11T06:57:56.980Z,14.20
2022-12-11T07:00:24.941Z,14.35
2022-12-11T07:02:52.930Z,14.45
2022-12-11T07:05:22.263Z,16.73
2022-12-11T07:07:50.295Z,14.70
2022-12-11T07:10:18.531Z,16.67
2022-12-11T07:12:46.500Z,14.50
2022-12-11T07:15:14.626Z,11.82
2022-12-11T07:17:42.625Z,13.68
2022-12-11T07:20:11.561Z,15.73
2022-12-11T07:22:46.249Z,13.65
2022-12-11T07:25:15.015Z,14.75
2022-12-11T07:27:43.124Z,14.48
2022-12-11T07:30:12.480Z,10.50
2022-12-11T07:32:40.577Z,15.55
2022-12-11T07:35:09.646Z,19.45
2022-12-11T07:37:38.166Z,33.15
2022-12-11T07:40:09.817Z,30.35
2022-12-11T07:42:42.825Z,26.05
2022-12-11T07:45:14.176Z,23.42
2022-12-11T07:47:42.274Z,21.48
2022-12-11T07:50:10.829Z,16.60
2022-12-11T07:52:38.830Z,18.02
2022-12-11T07:55:09.118Z,15.85
2022-12-11T07:57:37.581Z,20.67
2022-12-11T08:00:06.965Z,18.05
2022-12-11T08:02:37.436Z,17.63
2022-12-11T08:05:06.525Z,18.00
2022-12-11T08:07:35.925Z,18.75
2022-12-11T08:10:04.647Z,19.75
2022-12-11T08:12:33.965Z,20.13
2022-12-11T08:15:01.951Z,17.52
2022-12-11T08:17:32.866Z,18.00
2022-12-11T08:20:05.381Z,27.17
2022-12-11T08:22:33.426Z,21.48
2022-12-11T08:25:01.422Z,16.40
2022-12-11T08:27:29.354Z,15.82
2022-12-11T08:29:58.763Z,19.60
2022-12-11T08:32:26.728Z,20.02
2022-12-11T08:34:54.715Z,18.60
2022-12-11T08:37:22.663Z,17.35
2022-12-11T08:39:50.630Z,16.92
2022-12-11T08:42:18.857Z,16.83
2022-12-11T08:44:49.320Z,13.85
2022-12-11T08:47:18.754Z,15.18
2022-12-11T08:49:46.924Z,18.33
2022-12-11T08:52:14.878Z,17.48
2022-12-11T08:54:43.012Z,13.85
2022-12-11T08:57:10.981Z,16.98
2022-12-11T08:59:39.044Z,15.30
2022-12-11T09:02:08.259Z,15.43
2022-12-11T09:04:37.717Z,15.85
2022-12-11T09:07:05.784Z,16.92
2022-12-11T09:09:33.734Z,15.88
2022-12-11T09:12:01.773Z,18.83
2022-12-11T09:14:29.762Z,17.55
2022-12-11T09:16:57.814Z,18.45
2022-12-11T09:19:31.934Z,24.30
2022-12-11T09:22:01.678Z,22.77
2022-12-11T09:24:29.660Z,21.40
2022-12-11T09:26:57.613Z,22.10
2022-12-11T09:29:25.668Z,19.30
2022-12-11T09:31:53.628Z,19.52
2022-12-11T09:34:28.914Z,18.42
2022-12-11T09:36:57.335Z,20.95
2022-12-11T09:39:26.734Z,19.05
2022-12-11T09:42:01.177Z,22.25
2022-12-11T09:44:38.592Z,19.92
2022-12-11T09:47:22.900Z,19.35
2022-12-11T09:49:57.963Z,17.92
2022-12-11T09:52:35.496Z,17.50
2022-12-11T09:55:14.115Z,16.38
2022-12-11T09:57:51.775Z,15.75
2022-12-11T10:00:25.771Z,16.27
2022-12-11T10:03:24.788Z,17.23
2022-12-11T10:06:04.572Z,19.00
2022-12-11T10:08:42.087Z,19.10
2022-12-11T10:11:33.076Z,21.98
2022-12-11T10:14:12.552Z,19.25
2022-12-11T10:16:45.019Z,17.40
2022-12-11T10:19:19.214Z,20.05
2022-12-11T10:21:48.806Z,16.20
2022-12-11T10:24:42.203Z,17.08
2022-12-11T10:27:19.315Z,17.30
2022-12-11T11:27:47.187Z,5.07
2022-12-11T11:30:21.191Z,6.73
2022-12-11T11:32:51.746Z,5.63
2022-12-11T11:35:22.422Z,5.93
2022-12-11T11:37:59.984Z,4.80
2022-12-11T11:40:31.382Z,4.50
2022-12-11T11:43:16.747Z,5.30
2022-12-11T11:45:52.198Z,4.70
2022-12-11T11:48:31.655Z,4.97
2022-12-11T11:51:00.443Z,5.13
2022-12-11T11:53:32.973Z,5.83
2022-12-11T11:56:08.236Z,6.33
2022-12-11T11:58:42.843Z,5.33
2022-12-11T12:01:16.089Z,4.33
2022-12-11T12:03:44.506Z,4.70
2022-12-11T12:06:17.816Z,4.40
2022-12-11T12:08:50.980Z,4.57
2022-12-11T12:11:29.432Z,4.47
2022-12-11T12:14:28.808Z,5.40
2022-12-11T12:17:07.330Z,5.40
2022-12-11T12:19:47.272Z,5.13
2022-12-11T12:22:31.420Z,4.80
2022-12-11T12:25:08.336Z,3.70
2022-12-11T12:27:53.693Z,3.73
2022-12-11T12:30:23.992Z,4.90
2022-12-11T12:33:06.647Z,4.10
2022-12-11T12:35:37.177Z,7.30
2022-12-11T12:38:11.509Z,10.43
2022-12-11T12:40:49.918Z,8.90
2022-12-11T12:43:50.800Z,9.33
2022-12-11T12:46:34.255Z,8.00
2022-12-11T12:49:03.351Z,6.13
2022-12-11T12:51:31.808Z,5.93
2022-12-11T12:54:06.670Z,5.30
2022-12-11T12:56:43.605Z,5.53
2022-12-11T12:59:21.628Z,5.13
2022-12-11T13:01:54.980Z,4.80
2022-12-11T13:04:56.124Z,4.67
2022-12-11T13:07:29.834Z,4.70
2022-12-11T13:10:05.305Z,4.40
2022-12-11T13:12:45.454Z,6.73
2022-12-11T13:15:35.441Z,4.60
2022-12-11T13:18:27.104Z,4.33
2022-12-11T13:20:55.048Z,4.40
2022-12-11T13:23:30.715Z,3.77
2022-12-11T13:26:00.587Z,4.00
2022-12-11T13:28:32.233Z,4.10
2022-12-11T13:31:16.336Z,3.93
2022-12-11T13:33:49.386Z,4.67
2022-12-11T13:36:34.979Z,3.97
2022-12-11T13:39:06.817Z,4.40
2022-12-11T13:41:37.603Z,4.60
2022-12-11T13:44:07.047Z,3.70
2022-12-11T13:46:37.747Z,5.97
2022-12-11T13:49:18.003Z,4.63
2022-12-11T13:51:54.149Z,4.00
2022-12-11T13:54:22.204Z,3.67
2022-12-11T13:56:58.410Z,5.20
2022-12-11T13:59:29.149Z,4.00
2022-12-11T14:02:02.049Z,4.23
2022-12-11T14:04:32.916Z,3.80
2022-12-11T14:07:02.331Z,4.77
2022-12-11T14:09:30.508Z,5.00
2022-12-11T14:11:59.320Z,4.40
2022-12-11T14:14:39.504Z,4.87
2022-12-11T14:17:07.928Z,4.10
2022-12-11T14:19:37.295Z,4.10
2022-12-11T14:22:07.863Z,6.30
2022-12-11T14:24:35.986Z,4.00
2022-12-11T14:27:04.807Z,4.83
2022-12-11T14:29:34.729Z,4.50
2022-12-11T14:32:06.491Z,4.57
2022-12-11T14:34:40.342Z,5.50
2022-12-11T14:37:09.142Z,5.30
2022-12-11T14:39:41.792Z,3.97
2022-12-11T14:42:15.721Z,4.57
2022-12-11T14:44:50.298Z,4.70
2022-12-11T14:47:21.811Z,3.80
2022-12-11T14:49:58.730Z,4.30
2022-12-11T14:52:31.341Z,4.40
2022-12-11T14:55:06.584Z,5.10
2022-12-11T14:57:35.446Z,4.57
2022-12-11T15:00:04.783Z,6.10
2022-12-11T15:02:35.483Z,4.97
2022-12-11T15:05:21.248Z,4.20
2022-12-11T15:07:57.611Z,5.20
2022-12-11T15:12:50.086Z,3.90
2022-12-11T15:15:19.395Z,2.63
2022-12-11T15:21:53.888Z,3.58
2022-12-11T15:24:26.316Z,4.67
2022-12-11T15:26:59.083Z,5.40
2022-12-11T15:29:35.201Z,4.67
2022-12-11T15:32:18.474Z,5.53
2022-12-11T15:34:48.860Z,5.50
2022-12-11T15:37:22.617Z,4.80
2022-12-11T15:39:50.612Z,4.03
2022-12-11T15:42:25.267Z,4.67
2022-12-11T15:44:55.494Z,6.30
2022-12-11T15:47:26.104Z,7.30
2022-12-11T15:49:56.893Z,5.27
2022-12-11T15:52:25.425Z,4.67
2022-12-11T15:54:53.471Z,4.97
2022-12-11T15:57:23.919Z,5.53
2022-12-11T15:59:55.170Z,5.40
2022-12-11T16:02:24.379Z,5.07
2022-12-11T16:04:52.506Z,5.60
2022-12-11T16:07:26.028Z,4.63
2022-12-11T16:09:58.986Z,5.30
2022-12-11T16:12:27.279Z,5.37
2022-12-11T16:14:56.633Z,5.80
2022-12-11T16:17:24.629Z,5.70
2022-12-11T16:19:55.145Z,5.43
2022-12-11T16:22:23.160Z,5.50
2022-12-11T16:24:54.727Z,6.53
2022-12-11T16:27:23.549Z,5.23
2022-12-11T16:29:53.284Z,6.00
2022-12-11T16:32:22.647Z,6.10
2022-12-11T16:34:52.373Z,6.00
2022-12-11T16:37:20.746Z,5.60
2022-12-11T16:39:48.758Z,6.70
2022-12-11T16:42:16.744Z,6.07
2022-12-11T16:44:44.775Z,5.90
2022-12-11T16:47:12.813Z,6.87
2022-12-11T16:49:43.100Z,6.15
2022-12-11T16:52:11.594Z,6.00
2022-12-11T16:54:39.686Z,6.80
2022-12-11T16:57:07.705Z,6.40
2022-12-11T16:59:37.697Z,6.07
2022-12-11T17:02:06.391Z,5.73
2022-12-11T17:04:34.446Z,5.70
2022-12-11T17:07:03.865Z,7.20
2022-12-11T17:09:32.011Z,5.67
2022-12-11T17:12:00.204Z,5.43
2022-12-11T17:14:28.423Z,6.10
2022-12-11T17:16:56.881Z,5.53
2022-12-11T17:19:24.950Z,6.10
2022-12-11T17:21:54.095Z,6.00
2022-12-11T17:24:23.427Z,6.63
2022-12-11T17:26:51.433Z,6.40
2022-12-11T17:29:19.981Z,7.43
2022-12-11T17:31:48.403Z,7.13
2022-12-11T17:34:16.872Z,6.20
2022-12-11T17:36:46.449Z,6.57
2022-12-11T17:39:14.451Z,6.93
2022-12-11T17:41:43.828Z,6.83
2022-12-11T17:44:12.083Z,6.77
2022-12-11T17:46:40.124Z,5.93
2022-12-11T17:49:08.091Z,5.97
2022-12-11T17:51:36.184Z,7.27
2022-12-11T17:54:04.465Z,6.17
2022-12-11T17:56:34.790Z,7.03
2022-12-11T17:59:04.522Z,6.60
2022-12-11T18:01:32.609Z,6.13
2022-12-11T18:04:01.733Z,6.60
2022-12-11T18:06:30.717Z,6.80
2022-12-11T18:08:59.287Z,6.87
2022-12-11T18:11:27.243Z,6.60
2022-12-11T18:13:55.338Z,6.60
2022-12-11T18:16:27.400Z,6.50
2022-12-11T18:18:56.451Z,6.90
2022-12-11T18:21:26.147Z,5.87
2022-12-11T18:23:54.715Z,5.30
2022-12-11T18:26:23.532Z,6.47
2022-12-11T18:28:52.914Z,6.07
2022-12-11T18:31:23.526Z,6.10
2022-12-11T18:33:53.729Z,6.10
2022-12-11T18:36:22.558Z,6.17
2022-12-11T18:38:50.545Z,6.90
2022-12-11T18:41:20.057Z,6.40
2022-12-11T18:43:48.376Z,5.70
2022-12-11T18:46:18.384Z,6.00
2022-12-11T18:48:47.711Z,6.60
2022-12-11T18:51:19.622Z,6.83
2022-12-11T18:53:47.638Z,6.63
2022-12-11T18:56:17.517Z,6.50
2022-12-11T18:58:45.930Z,6.07
2022-12-11T19:01:17.487Z,6.70
2022-12-11T19:03:46.235Z,6.50
2022-12-11T19:06:17.475Z,6.00
2022-12-11T19:08:45.778Z,7.13
2022-12-11T19:11:16.655Z,6.50
2022-12-11T19:13:44.970Z,6.37
2022-12-11T19:16:17.398Z,6.90
2022-12-11T19:18:45.888Z,6.33
2022-12-11T19:21:16.616Z,5.90
2022-12-11T19:23:45.896Z,6.07
2022-12-11T19:26:15.634Z,5.80
2022-12-11T19:28:43.956Z,7.10
2022-12-11T19:31:13.407Z,6.27
2022-12-11T19:33:42.105Z,6.00
2022-12-11T19:36:12.798Z,7.50
2022-12-11T19:38:43.280Z,6.90
2022-12-11T19:41:14.179Z,6.57
2022-12-11T19:43:42.233Z,6.90
2022-12-11T19:46:11.879Z,6.17
2022-12-11T19:48:41.495Z,7.00
2022-12-11T19:51:11.242Z,6.47
2022-12-11T19:53:41.708Z,6.90
2022-12-11T19:56:10.444Z,6.90
2022-12-11T19:58:39.224Z,5.60
2022-12-11T20:01:08.036Z,7.07
2022-12-11T20:03:37.116Z,6.97
2022-12-11T20:06:06.716Z,7.13
2022-12-11T20:08:44.471Z,7.20
2022-12-11T20:11:18.573Z,6.77
2022-12-11T20:13:47.254Z,7.07
2022-12-11T20:16:17.305Z,7.27
2022-12-11T20:18:45.939Z,7.40
2022-12-11T20:21:16.262Z,6.90
2022-12-11T20:23:45.462Z,7.13
2022-12-11T20:26:17.326Z,7.23
2022-12-11T20:28:47.929Z,7.27
2022-12-11T20:31:20.495Z,7.03
2022-12-11T20:33:49.699Z,6.83
2022-12-11T20:36:20.311Z,7.60
2022-12-11T20:38:48.275Z,7.10
2022-12-11T20:41:19.923Z,7.53
2022-12-11T20:43:49.025Z,7.67
2022-12-11T20:46:18.444Z,7.30
2022-12-11T20:48:47.134Z,7.00
2022-12-11T20:51:22.410Z,6.83
2022-12-11T20:53:58.310Z,7.20
2022-12-11T20:56:29.627Z,7.30
2022-12-11T20:58:58.603Z,6.97
2022-12-11T21:01:28.465Z,7.03
2022-12-11T21:03:56.573Z,7.10
2022-12-11T21:06:28.294Z,7.27
2022-12-11T21:08:56.325Z,8.03
2022-12-11T21:11:24.734Z,6.80
2022-12-11T21:13:54.432Z,7.13
2022-12-11T21:16:23.234Z,7.70
2022-12-11T21:18:51.969Z,8.10
2022-12-11T21:21:19.943Z,8.00
2022-12-11T21:23:48.038Z,7.80
2022-12-11T21:26:16.388Z,7.43
2022-12-11T21:28:44.339Z,7.60
2022-12-11T21:31:17.839Z,7.30
2022-12-11T21:33:46.354Z,8.00
2022-12-11T21:36:15.625Z,7.43
2022-12-11T21:38:44.899Z,7.30
2022-12-11T21:41:15.625Z,7.50
2022-12-11T21:44:14.721Z,7.77
2022-12-11T21:46:34.534Z,7.33
2022-12-11T21:49:02.551Z,7.60
2022-12-11T21:51:37.113Z,8.30
2022-12-11T21:54:09.152Z,7.57
2022-12-11T21:56:37.583Z,7.80
2022-12-11T21:59:05.790Z,7.87
2022-12-11T22:01:38.133Z,7.60
2022-12-11T22:04:06.724Z,8.33
2022-12-11T22:06:35.571Z,8.13
2022-12-11T22:09:05.162Z,7.77
2022-12-11T22:11:35.459Z,7.80
2022-12-11T22:14:04.540Z,8.00
2022-12-11T22:16:34.187Z,7.90
2022-12-11T22:19:02.163Z,7.70
2022-12-11T22:21:30.262Z,7.83
2022-12-11T22:23:58.356Z,8.47
2022-12-11T22:26:28.125Z,8.80
2022-12-11T22:28:56.977Z,7.23
2022-12-11T22:31:27.059Z,7.83
2022-12-11T22:33:57.265Z,7.93
2022-12-11T22:36:26.486Z,8.70
2022-12-11T22:38:55.373Z,8.87
2022-12-11T22:41:26.074Z,8.10
2022-12-11T22:43:54.852Z,7.33
2022-12-11T22:46:24.815Z,7.77
2022-12-11T22:48:53.132Z,7.60
2022-12-11T22:51:22.931Z,7.97
2022-12-11T22:53:50.927Z,8.07
2022-12-11T22:56:19.175Z,8.37
2022-12-11T22:58:47.323Z,7.60
2022-12-11T23:01:17.839Z,8.90
2022-12-11T23:03:47.346Z,8.00
2022-12-11T23:06:17.891Z,7.93
2022-12-11T23:08:47.922Z,8.17
2022-12-11T23:11:19.842Z,7.70
2022-12-11T23:13:47.922Z,7.53
2022-12-11T23:16:16.045Z,8.60
2022-12-11T23:18:44.159Z,8.07
2022-12-11T23:21:12.857Z,8.20
2022-12-11T23:23:41.742Z,7.60
2022-12-11T23:26:13.022Z,7.10
2022-12-11T23:28:41.960Z,7.43
2022-12-11T23:31:10.461Z,8.47
2022-12-11T23:33:38.931Z,7.77
2022-12-11T23:36:07.703Z,9.07
2022-12-11T23:38:36.226Z,7.30
2022-12-11T23:41:05.070Z,7.43
2022-12-11T23:43:35.400Z,8.20
2022-12-11T23:46:03.898Z,7.50
2022-12-11T23:48:32.174Z,8.20
2022-12-11T23:51:00.904Z,7.60
2022-12-11T23:53:29.393Z,8.33
2022-12-11T23:55:57.568Z,7.07
2022-12-11T23:58:25.811Z,6.90
